ENZV

Stavanger , Sola Airport

Stavanger, Norway
METAR ENZV 241320Z 29009KT CAVOK 17/11 Q1029 NOSIG
Observed Flight Rules
May-24 @ 13:20 UTC (35 minutes ago) Visual Flight Rules
Wind Visibility Clouds
290° at 9 knots 10,000+ meters
  • Clear skies
Temperatures Readings
Current 17°C / 63°F
Dewpoint 11°C / 52°F
Humidity 68%
Altimeter 30.38" Hg
Pressure 1029 hPa
Elevation 9
METAR ENZV 241320Z 29009KT CAVOK 17/11 Q1029 NOSIG
Observed Flight Rules
May-24 @ 13:20 UTC
(35 minutes ago)
VFR
Wind Visibility
290° at 9 knots 10,000+ meters
Clouds
  • Clear skies
Temperature Dewpoint
17°C / 63°F 11°C / 52°F
Humidity Altimeter Pressure
68% 30.38" Hg 1029 hPa